sensor_id;sensor_type;location;lat;lon;timestamp;pressure;altitude;pressure_sealevel;temperature;humidity
24422;BME280;12600;53.326;-6.298;2023-02-28T00:02:25;103283.00;;;9.95;66.17
24422;BME280;12600;53.326;-6.298;2023-02-28T00:05:18;103291.78;;;9.97;66.14
24422;BME280;12600;53.326;-6.298;2023-02-28T00:08:08;103281.44;;;9.99;66.18
24422;BME280;12600;53.326;-6.298;2023-02-28T00:11:02;103279.44;;;9.95;66.40
24422;BME280;12600;53.326;-6.298;2023-02-28T00:13:52;103293.69;;;9.97;66.43
24422;BME280;12600;53.326;-6.298;2023-02-28T00:16:41;103291.19;;;9.95;66.71
24422;BME280;12600;53.326;-6.298;2023-02-28T00:19:30;103294.84;;;10.01;66.61
24422;BME280;12600;53.326;-6.298;2023-02-28T00:22:21;103284.41;;;9.98;66.72
24422;BME280;12600;53.326;-6.298;2023-02-28T00:25:13;103294.59;;;10.02;66.87
24422;BME280;12600;53.326;-6.298;2023-02-28T00:28:04;103287.59;;;10.06;66.93
24422;BME280;12600;53.326;-6.298;2023-02-28T00:30:53;103294.72;;;10.07;67.20
24422;BME280;12600;53.326;-6.298;2023-02-28T00:33:43;103293.06;;;10.06;67.28
24422;BME280;12600;53.326;-6.298;2023-02-28T00:36:34;103298.19;;;10.03;67.70
24422;BME280;12600;53.326;-6.298;2023-02-28T00:39:24;103300.19;;;10.07;67.69
24422;BME280;12600;53.326;-6.298;2023-02-28T00:42:16;103305.66;;;10.07;67.64
24422;BME280;12600;53.326;-6.298;2023-02-28T00:45:10;103304.13;;;10.12;67.60
24422;BME280;12600;53.326;-6.298;2023-02-28T00:47:59;103311.22;;;10.13;67.75
24422;BME280;12600;53.326;-6.298;2023-02-28T00:50:49;103304.69;;;10.14;67.54
24422;BME280;12600;53.326;-6.298;2023-02-28T00:53:38;103309.91;;;10.15;67.64
24422;BME280;12600;53.326;-6.298;2023-02-28T00:56:27;103301.38;;;10.12;67.57
24422;BME280;12600;53.326;-6.298;2023-02-28T00:59:17;103301.38;;;10.12;67.75
24422;BME280;12600;53.326;-6.298;2023-02-28T01:02:08;103307.91;;;10.11;67.97
24422;BME280;12600;53.326;-6.298;2023-02-28T01:04:57;103311.56;;;10.16;67.88
24422;BME280;12600;53.326;-6.298;2023-02-28T01:07:50;103311.31;;;10.18;68.33
24422;BME280;12600;53.326;-6.298;2023-02-28T01:10:39;103314.53;;;10.15;68.31
24422;BME280;12600;53.326;-6.298;2023-02-28T01:13:29;103307.66;;;10.12;68.42
24422;BME280;12600;53.326;-6.298;2023-02-28T01:16:18;103308.50;;;10.13;68.65
24422;BME280;12600;53.326;-6.298;2023-02-28T01:19:09;103312.31;;;10.12;68.58
24422;BME280;12600;53.326;-6.298;2023-02-28T01:22:01;103322.25;;;10.18;68.61
24422;BME280;12600;53.326;-6.298;2023-02-28T01:24:51;103323.94;;;10.19;68.71
24422;BME280;12600;53.326;-6.298;2023-02-28T01:27:40;103311.94;;;10.20;68.85
24422;BME280;12600;53.326;-6.298;2023-02-28T01:30:30;103313.00;;;10.19;68.94
24422;BME280;12600;53.326;-6.298;2023-02-28T01:33:19;103309.19;;;10.20;69.08
24422;BME280;12600;53.326;-6.298;2023-02-28T01:36:13;103306.09;;;10.16;69.27
24422;BME280;12600;53.326;-6.298;2023-02-28T01:39:03;103312.06;;;10.13;69.22
24422;BME280;12600;53.326;-6.298;2023-02-28T01:41:52;103315.38;;;10.15;69.11
24422;BME280;12600;53.326;-6.298;2023-02-28T01:45:20;103317.84;;;10.17;69.23
24422;BME280;12600;53.326;-6.298;2023-02-28T01:48:11;103312.88;;;10.14;69.27
24422;BME280;12600;53.326;-6.298;2023-02-28T01:51:05;103313.97;;;10.13;68.95
24422;BME280;12600;53.326;-6.298;2023-02-28T01:54:01;103309.78;;;10.10;69.14
24422;BME280;12600;53.326;-6.298;2023-02-28T01:56:57;103315.63;;;10.14;68.96
24422;BME280;12600;53.326;-6.298;2023-02-28T01:59:52;103308.97;;;10.09;69.10
24422;BME280;12600;53.326;-6.298;2023-02-28T02:02:45;103318.59;;;10.12;68.99
24422;BME280;12600;53.326;-6.298;2023-02-28T02:05:38;103310.66;;;10.11;68.85
24422;BME280;12600;53.326;-6.298;2023-02-28T02:08:29;103311.22;;;10.13;69.04
24422;BME280;12600;53.326;-6.298;2023-02-28T02:11:21;103303.28;;;10.11;68.89
24422;BME280;12600;53.326;-6.298;2023-02-28T02:14:43;103308.50;;;10.13;68.76
24422;BME280;12600;53.326;-6.298;2023-02-28T02:17:41;103289.63;;;9.99;69.02
24422;BME280;12600;53.326;-6.298;2023-02-28T02:21:18;103313.97;;;10.13;68.92
24422;BME280;12600;53.326;-6.298;2023-02-28T02:24:48;103308.13;;;10.09;69.11
24422;BME280;12600;53.326;-6.298;2023-02-28T02:28:17;103299.94;;;10.09;69.13
24422;BME280;12600;53.326;-6.298;2023-02-28T02:31:37;103313.97;;;10.13;69.43
24422;BME280;12600;53.326;-6.298;2023-02-28T02:34:46;103307.81;;;10.05;69.16
24422;BME280;12600;53.326;-6.298;2023-02-28T02:37:45;103317.41;;;10.08;69.36
24422;BME280;12600;53.326;-6.298;2023-02-28T02:40:43;103315.03;;;10.12;69.39
24422;BME280;12600;53.326;-6.298;2023-02-28T02:43:38;103318.84;;;10.11;69.55
24422;BME280;12600;53.326;-6.298;2023-02-28T02:46:33;103308.38;;;10.07;69.73
24422;BME280;12600;53.326;-6.298;2023-02-28T02:49:30;103313.03;;;10.07;69.86
24422;BME280;12600;53.326;-6.298;2023-02-28T02:52:30;103300.56;;;9.99;70.14
24422;BME280;12600;53.326;-6.298;2023-02-28T02:55:23;103304.56;;;10.08;69.87
24422;BME280;12600;53.326;-6.298;2023-02-28T02:58:16;103303.41;;;10.04;70.00
24422;BME280;12600;53.326;-6.298;2023-02-28T03:01:10;103302.78;;;10.02;70.18
24422;BME280;12600;53.326;-6.298;2023-02-28T03:04:03;103287.72;;;10.00;70.05
24422;BME280;12600;53.326;-6.298;2023-02-28T03:06:54;103296.03;;;10.05;69.91
24422;BME280;12600;53.326;-6.298;2023-02-28T03:09:51;103291.28;;;10.00;69.77
24422;BME280;12600;53.326;-6.298;2023-02-28T03:12:50;103297.47;;;10.07;70.20
24422;BME280;12600;53.326;-6.298;2023-02-28T03:15:57;103302.34;;;10.05;70.29
24422;BME280;12600;53.326;-6.298;2023-02-28T03:19:00;103294.28;;;9.99;70.19
24422;BME280;12600;53.326;-6.298;2023-02-28T03:22:13;103303.66;;;10.03;70.05
24422;BME280;12600;53.326;-6.298;2023-02-28T03:25:08;103299.03;;;9.92;70.85
24422;BME280;12600;53.326;-6.298;2023-02-28T03:28:07;103315.03;;;10.00;70.61
24422;BME280;12600;53.326;-6.298;2023-02-28T03:31:01;103309.81;;;9.98;70.97
24422;BME280;12600;53.326;-6.298;2023-02-28T03:34:03;103305.91;;;9.94;70.56
24422;BME280;12600;53.326;-6.298;2023-02-28T03:36:55;103305.91;;;9.94;71.00
24422;BME280;12600;53.326;-6.298;2023-02-28T03:39:51;103318.72;;;9.94;71.21
24422;BME280;12600;53.326;-6.298;2023-02-28T03:42:49;103319.69;;;9.99;70.88
24422;BME280;12600;53.326;-6.298;2023-02-28T03:45:42;103311.97;;;9.96;70.94
24422;BME280;12600;53.326;-6.298;2023-02-28T03:48:38;103323.00;;;10.01;70.86
24422;BME280;12600;53.326;-6.298;2023-02-28T03:51:30;103313.72;;;10.02;70.92
24422;BME280;12600;53.326;-6.298;2023-02-28T03:54:26;103322.78;;;10.03;70.96
24422;BME280;12600;53.326;-6.298;2023-02-28T03:57:25;103320.50;;;10.00;71.13
24422;BME280;12600;53.326;-6.298;2023-02-28T04:00:21;103325.50;;;10.03;71.27
24422;BME280;12600;53.326;-6.298;2023-02-28T04:03:16;103323.00;;;10.01;71.12
24422;BME280;12600;53.326;-6.298;2023-02-28T04:06:08;103323.59;;;10.03;71.09
24422;BME280;12600;53.326;-6.298;2023-02-28T04:09:04;103326.34;;;10.03;71.09
24422;BME280;12600;53.326;-6.298;2023-02-28T04:11:54;103323.59;;;10.03;71.20
24422;BME280;12600;53.326;-6.298;2023-02-28T04:14:44;103328.00;;;10.04;71.18
24422;BME280;12600;53.326;-6.298;2023-02-28T04:17:35;103325.25;;;10.04;71.16
24422;BME280;12600;53.326;-6.298;2023-02-28T04:20:24;103328.56;;;10.06;71.20
24422;BME280;12600;53.326;-6.298;2023-02-28T04:23:13;103330.47;;;10.06;71.42
24422;BME280;12600;53.326;-6.298;2023-02-28T04:26:03;103328.56;;;10.06;71.10
24422;BME280;12600;53.326;-6.298;2023-02-28T04:28:53;103329.28;;;10.02;71.31
24422;BME280;12600;53.326;-6.298;2023-02-28T04:31:43;103338.91;;;10.04;71.34
24422;BME280;12600;53.326;-6.298;2023-02-28T04:34:34;103331.09;;;9.96;71.20
24422;BME280;12600;53.326;-6.298;2023-02-28T04:37:23;103340.47;;;10.00;71.31
24422;BME280;12600;53.326;-6.298;2023-02-28T04:40:16;103345.47;;;10.03;71.26
24422;BME280;12600;53.326;-6.298;2023-02-28T04:43:06;103341.03;;;10.02;71.34
24422;BME280;12600;53.326;-6.298;2023-02-28T04:45:56;103331.91;;;9.97;71.28
24422;BME280;12600;53.326;-6.298;2023-02-28T04:48:45;103357.44;;;10.02;71.40
24422;BME280;12600;53.326;-6.298;2023-02-28T04:51:36;103356.25;;;9.98;71.67
24422;BME280;12600;53.326;-6.298;2023-02-28T04:54:26;103351.03;;;9.97;71.89
24422;BME280;12600;53.326;-6.298;2023-02-28T04:57:16;103349.59;;;9.94;71.41
24422;BME280;12600;53.326;-6.298;2023-02-28T05:00:06;103358.88;;;9.93;71.90
24422;BME280;12600;53.326;-6.298;2023-02-28T05:02:59;103357.44;;;9.91;71.64
24422;BME280;12600;53.326;-6.298;2023-02-28T05:05:48;103360.66;;;9.88;71.64
24422;BME280;12600;53.326;-6.298;2023-02-28T05:08:39;103350.81;;;9.75;71.16
24422;BME280;12600;53.326;-6.298;2023-02-28T05:11:31;103342.47;;;9.70;71.05
24422;BME280;12600;53.326;-6.298;2023-02-28T05:14:23;103363.50;;;9.69;71.26
24422;BME280;12600;53.326;-6.298;2023-02-28T05:17:12;103381.19;;;9.67;71.33
24422;BME280;12600;53.326;-6.298;2023-02-28T05:20:01;103376.66;;;9.61;71.81
24422;BME280;12600;53.326;-6.298;2023-02-28T05:23:02;103372.28;;;9.48;72.22
24422;BME280;12600;53.326;-6.298;2023-02-28T05:25:52;103369.50;;;9.36;72.40
24422;BME280;12600;53.326;-6.298;2023-02-28T05:28:41;103373.06;;;9.25;72.42
24422;BME280;12600;53.326;-6.298;2023-02-28T05:31:31;103381.47;;;9.23;73.25
24422;BME280;12600;53.326;-6.298;2023-02-28T05:34:21;103381.34;;;9.18;73.23
24422;BME280;12600;53.326;-6.298;2023-02-28T05:37:12;103380.84;;;9.10;73.88
24422;BME280;12600;53.326;-6.298;2023-02-28T05:40:02;103400.84;;;9.04;74.39
24422;BME280;12600;53.326;-6.298;2023-02-28T05:42:55;103373.63;;;8.85;74.72
24422;BME280;12600;53.326;-6.298;2023-02-28T05:45:44;103388.34;;;8.84;75.15
24422;BME280;12600;53.326;-6.298;2023-02-28T05:48:34;103387.00;;;8.75;75.32
24422;BME280;12600;53.326;-6.298;2023-02-28T05:51:23;103400.63;;;8.75;75.32
24422;BME280;12600;53.326;-6.298;2023-02-28T05:54:13;103393.94;;;8.71;75.84
24422;BME280;12600;53.326;-6.298;2023-02-28T05:57:02;103395.16;;;8.75;76.23
24422;BME280;12600;53.326;-6.298;2023-02-28T06:00:01;103387.00;;;8.75;76.03
24422;BME280;12600;53.326;-6.298;2023-02-28T06:02:58;103390.91;;;8.79;76.26
24422;BME280;12600;53.326;-6.298;2023-02-28T06:05:49;103391.50;;;8.81;76.64
24422;BME280;12600;53.326;-6.298;2023-02-28T06:08:39;103395.91;;;8.82;76.60
24422;BME280;12600;53.326;-6.298;2023-02-28T06:11:28;103389.59;;;8.82;77.51
24422;BME280;12600;53.326;-6.298;2023-02-28T06:14:19;103391.66;;;8.86;78.03
24422;BME280;12600;53.326;-6.298;2023-02-28T06:17:13;103394.13;;;8.88;77.74
24422;BME280;12600;53.326;-6.298;2023-02-28T06:20:08;103378.63;;;8.88;77.77
24422;BME280;12600;53.326;-6.298;2023-02-28T06:22:58;103368.25;;;8.79;77.39
24422;BME280;12600;53.326;-6.298;2023-02-28T06:25:48;103389.91;;;8.92;77.03
24422;BME280;12600;53.326;-6.298;2023-02-28T06:28:37;103378.25;;;8.85;77.30
24422;BME280;12600;53.326;-6.298;2023-02-28T06:31:27;103380.91;;;8.91;77.21
24422;BME280;12600;53.326;-6.298;2023-02-28T06:34:19;103381.56;;;8.87;77.00
24422;BME280;12600;53.326;-6.298;2023-02-28T06:37:11;103384.31;;;8.87;77.55
24422;BME280;12600;53.326;-6.298;2023-02-28T06:40:00;103383.72;;;8.85;77.89
24422;BME280;12600;53.326;-6.298;2023-02-28T06:42:53;103405.78;;;8.95;78.83
24422;BME280;12600;53.326;-6.298;2023-02-28T06:45:43;103426.19;;;8.92;78.30
24422;BME280;12600;53.326;-6.298;2023-02-28T06:48:35;103409.66;;;8.87;78.46
24422;BME280;12600;53.326;-6.298;2023-02-28T06:51:28;103426.03;;;8.87;78.65
24422;BME280;12600;53.326;-6.298;2023-02-28T06:54:18;103425.66;;;8.84;79.11
24422;BME280;12600;53.326;-6.298;2023-02-28T06:57:08;103427.88;;;8.75;80.29
24422;BME280;12600;53.326;-6.298;2023-02-28T06:59:58;103430.22;;;8.72;80.43
24422;BME280;12600;53.326;-6.298;2023-02-28T07:02:48;103436.50;;;8.72;80.03
24422;BME280;12600;53.326;-6.298;2023-02-28T07:05:38;103436.97;;;8.69;80.32
24422;BME280;12600;53.326;-6.298;2023-02-28T07:08:33;103434.78;;;8.59;80.30
24422;BME280;12600;53.326;-6.298;2023-02-28T07:11:26;103450.72;;;8.56;81.26
24422;BME280;12600;53.326;-6.298;2023-02-28T07:14:16;103450.38;;;8.52;81.32
24422;BME280;12600;53.326;-6.298;2023-02-28T07:17:07;103445.81;;;8.46;82.27
24422;BME280;12600;53.326;-6.298;2023-02-28T07:19:56;103447.88;;;8.51;81.73
24422;BME280;12600;53.326;-6.298;2023-02-28T07:22:46;103451.63;;;8.50;82.07
24422;BME280;12600;53.326;-6.298;2023-02-28T07:25:44;103449.31;;;8.53;81.30
24422;BME280;12600;53.326;-6.298;2023-02-28T07:28:34;103450.19;;;8.47;82.67
24422;BME280;12600;53.326;-6.298;2023-02-28T07:31:23;103456.03;;;8.51;81.52
24422;BME280;12600;53.326;-6.298;2023-02-28T07:34:13;103452.25;;;8.52;81.19
24422;BME280;12600;53.326;-6.298;2023-02-28T07:37:02;103453.09;;;8.52;81.49
24422;BME280;12600;53.326;-6.298;2023-02-28T07:39:53;103462.94;;;8.53;81.61
24422;BME280;12600;53.326;-6.298;2023-02-28T07:42:43;103454.34;;;8.50;81.53
24422;BME280;12600;53.326;-6.298;2023-02-28T07:45:37;103471.16;;;8.47;82.21
24422;BME280;12600;53.326;-6.298;2023-02-28T07:48:26;103469.50;;;8.46;81.59
24422;BME280;12600;53.326;-6.298;2023-02-28T07:51:15;103468.13;;;8.36;82.05
24422;BME280;12600;53.326;-6.298;2023-02-28T07:54:05;103477.75;;;8.39;81.99
24422;BME280;12600;53.326;-6.298;2023-02-28T07:56:55;103463.91;;;8.34;81.64
24422;BME280;12600;53.326;-6.298;2023-02-28T07:59:46;103486.97;;;8.38;81.27
24422;BME280;12600;53.326;-6.298;2023-02-28T08:02:36;103479.88;;;8.37;81.55
24422;BME280;12600;53.326;-6.298;2023-02-28T08:05:25;103484.03;;;8.39;81.27
24422;BME280;12600;53.326;-6.298;2023-02-28T08:08:15;103476.69;;;8.40;81.10
24422;BME280;12600;53.326;-6.298;2023-02-28T08:11:05;103484.19;;;8.45;81.53
24422;BME280;12600;53.326;-6.298;2023-02-28T08:13:55;103494.03;;;8.46;81.43
24422;BME280;12600;53.326;-6.298;2023-02-28T08:16:45;103491.25;;;8.52;81.44
24422;BME280;12600;53.326;-6.298;2023-02-28T08:19:34;103494.78;;;8.53;80.71
24422;BME280;12600;53.326;-6.298;2023-02-28T08:22:24;103501.91;;;8.54;80.63
24422;BME280;12600;53.326;-6.298;2023-02-28T08:25:13;103494.94;;;8.58;80.56
24422;BME280;12600;53.326;-6.298;2023-02-28T08:28:03;103496.00;;;8.57;79.66
24422;BME280;12600;53.326;-6.298;2023-02-28T08:30:53;103487.81;;;8.57;80.19
24422;BME280;12600;53.326;-6.298;2023-02-28T08:33:44;103488.81;;;8.62;79.49
24422;BME280;12600;53.326;-6.298;2023-02-28T08:36:36;103497.59;;;8.64;79.54
24422;BME280;12600;53.326;-6.298;2023-02-28T08:39:26;103481.47;;;8.63;79.46
24422;BME280;12600;53.326;-6.298;2023-02-28T08:42:15;103495.78;;;8.77;79.29
24422;BME280;12600;53.326;-6.298;2023-02-28T08:45:06;103499.94;;;8.79;79.39
24422;BME280;12600;53.326;-6.298;2023-02-28T08:47:55;103479.50;;;8.70;79.27
24422;BME280;12600;53.326;-6.298;2023-02-28T08:50:55;103498.66;;;8.82;79.16
24422;BME280;12600;53.326;-6.298;2023-02-28T08:53:55;103494.78;;;8.89;79.29
24422;BME280;12600;53.326;-6.298;2023-02-28T08:56:47;103500.41;;;8.94;79.05
24422;BME280;12600;53.326;-6.298;2023-02-28T08:59:37;103506.00;;;9.00;78.62
24422;BME280;12600;53.326;-6.298;2023-02-28T09:02:26;103499.63;;;9.06;78.76
24422;BME280;12600;53.326;-6.298;2023-02-28T09:05:15;103496.28;;;9.04;78.58
24422;BME280;12600;53.326;-6.298;2023-02-28T09:08:06;103500.44;;;9.06;77.36
24422;BME280;12600;53.326;-6.298;2023-02-28T09:10:56;103502.13;;;9.07;76.86
24422;BME280;12600;53.326;-6.298;2023-02-28T09:13:48;103507.97;;;9.11;76.48
24422;BME280;12600;53.326;-6.298;2023-02-28T09:16:37;103511.06;;;9.14;76.94
24422;BME280;12600;53.326;-6.298;2023-02-28T09:19:26;103514.75;;;9.20;76.87
24422;BME280;12600;53.326;-6.298;2023-02-28T09:22:16;103503.72;;;9.15;76.17
24422;BME280;12600;53.326;-6.298;2023-02-28T09:25:07;103522.34;;;9.18;76.20
24422;BME280;12600;53.326;-6.298;2023-02-28T09:27:57;103510.44;;;9.12;74.16
24422;BME280;12600;53.326;-6.298;2023-02-28T09:30:48;103519.97;;;9.21;75.05
24422;BME280;12600;53.326;-6.298;2023-02-28T09:33:38;103529.38;;;9.25;75.01
24422;BME280;12600;53.326;-6.298;2023-02-28T09:36:27;103510.13;;;9.20;73.46
24422;BME280;12600;53.326;-6.298;2023-02-28T09:39:30;103518.16;;;9.34;74.72
24422;BME280;12600;53.326;-6.298;2023-02-28T09:42:26;103528.75;;;9.42;73.92
24422;BME280;12600;53.326;-6.298;2023-02-28T09:45:23;103517.84;;;9.42;73.37
24422;BME280;12600;53.326;-6.298;2023-02-28T09:48:17;103523.47;;;9.59;73.08
24422;BME280;12600;53.326;-6.298;2023-02-28T09:51:16;103521.97;;;9.63;73.34
24422;BME280;12600;53.326;-6.298;2023-02-28T09:54:15;103520.66;;;9.65;71.85
24422;BME280;12600;53.326;-6.298;2023-02-28T09:57:11;103525.19;;;9.71;72.11
24422;BME280;12600;53.326;-6.298;2023-02-28T10:00:13;103518.78;;;9.77;70.95
24422;BME280;12600;53.326;-6.298;2023-02-28T10:03:22;103517.50;;;9.92;70.83
24422;BME280;12600;53.326;-6.298;2023-02-28T10:06:17;103517.41;;;10.10;71.48
24422;BME280;12600;53.326;-6.298;2023-02-28T10:09:11;103518.06;;;10.24;71.56
24422;BME280;12600;53.326;-6.298;2023-02-28T10:12:04;103508.41;;;10.21;69.71
24422;BME280;12600;53.326;-6.298;2023-02-28T10:14:58;103519.44;;;10.15;67.75
24422;BME280;12600;53.326;-6.298;2023-02-28T10:17:56;103507.44;;;10.16;69.05
24422;BME280;12600;53.326;-6.298;2023-02-28T10:20:56;103516.63;;;10.33;69.27
24422;BME280;12600;53.326;-6.298;2023-02-28T10:23:46;103518.19;;;10.41;68.96
24422;BME280;12600;53.326;-6.298;2023-02-28T10:26:37;103527.22;;;10.53;68.58
24422;BME280;12600;53.326;-6.298;2023-02-28T10:29:27;103523.28;;;10.60;68.46
24422;BME280;12600;53.326;-6.298;2023-02-28T10:32:20;103530.88;;;10.58;65.90
24422;BME280;12600;53.326;-6.298;2023-02-28T10:35:17;103529.22;;;10.57;65.40
24422;BME280;12600;53.326;-6.298;2023-02-28T10:38:16;103522.31;;;10.67;66.30
24422;BME280;12600;53.326;-6.298;2023-02-28T10:41:09;103530.03;;;10.81;66.06
24422;BME280;12600;53.326;-6.298;2023-02-28T10:44:15;103525.03;;;10.67;63.84
24422;BME280;12600;53.326;-6.298;2023-02-28T10:47:14;103517.13;;;10.53;63.23
24422;BME280;12600;53.326;-6.298;2023-02-28T10:50:08;103531.38;;;10.55;62.08
24422;BME280;12600;53.326;-6.298;2023-02-28T10:53:31;103524.00;;;10.56;62.19
24422;BME280;12600;53.326;-6.298;2023-02-28T10:56:42;103521.50;;;10.54;61.54
24422;BME280;12600;53.326;-6.298;2023-02-28T10:59:31;103528.13;;;10.93;63.29
24422;BME280;12600;53.326;-6.298;2023-02-28T11:02:33;103518.13;;;11.28;63.64
24422;BME280;12600;53.326;-6.298;2023-02-28T11:05:27;103532.13;;;11.43;60.68
24422;BME280;12600;53.326;-6.298;2023-02-28T11:08:17;103519.56;;;11.59;61.09
24422;BME280;12600;53.326;-6.298;2023-02-28T11:11:08;103522.72;;;11.67;59.85
24422;BME280;12600;53.326;-6.298;2023-02-28T11:14:04;103515.00;;;11.64;58.42
24422;BME280;12600;53.326;-6.298;2023-02-28T11:16:55;103517.41;;;11.77;59.03
24422;BME280;12600;53.326;-6.298;2023-02-28T11:19:50;103509.03;;;11.96;59.31
24422;BME280;12600;53.326;-6.298;2023-02-28T11:22:45;103521.97;;;12.17;58.76
24422;BME280;12600;53.326;-6.298;2023-02-28T11:25:37;103512.66;;;12.18;57.96
24422;BME280;12600;53.326;-6.298;2023-02-28T11:28:31;103518.97;;;12.19;56.59
24422;BME280;12600;53.326;-6.298;2023-02-28T11:31:20;103513.56;;;12.07;55.37
24422;BME280;12600;53.326;-6.298;2023-02-28T11:34:24;103511.41;;;11.92;56.59
24422;BME280;12600;53.326;-6.298;2023-02-28T11:37:18;103517.66;;;11.88;56.16
24422;BME280;12600;53.326;-6.298;2023-02-28T11:40:13;103515.75;;;11.88;57.10
24422;BME280;12600;53.326;-6.298;2023-02-28T11:43:18;103523.97;;;11.76;55.51
24422;BME280;12600;53.326;-6.298;2023-02-28T11:46:22;103515.28;;;11.80;56.25
24422;BME280;12600;53.326;-6.298;2023-02-28T11:49:28;103523.94;;;11.60;55.80
24422;BME280;12600;53.326;-6.298;2023-02-28T11:52:26;103518.19;;;11.44;56.95
24422;BME280;12600;53.326;-6.298;2023-02-28T11:55:25;103521.13;;;11.26;57.20
24422;BME280;12600;53.326;-6.298;2023-02-28T11:58:34;103526.78;;;11.08;58.26
24422;BME280;12600;53.326;-6.298;2023-02-28T12:05:24;103528.53;;;10.62;59.25
24422;BME280;12600;53.326;-6.298;2023-02-28T12:08:29;103516.38;;;10.58;59.61
24422;BME280;12600;53.326;-6.298;2023-02-28T12:11:48;103519.81;;;10.65;59.87
24422;BME280;12600;53.326;-6.298;2023-02-28T12:15:24;103516.72;;;10.85;60.06
24422;BME280;12600;53.326;-6.298;2023-02-28T12:18:31;103509.91;;;10.99;58.91
24422;BME280;12600;53.326;-6.298;2023-02-28T12:21:38;103513.91;;;11.48;60.20
24422;BME280;12600;53.326;-6.298;2023-02-28T12:25:01;103508.09;;;11.62;57.76
24422;BME280;12600;53.326;-6.298;2023-02-28T12:27:58;103503.03;;;11.70;57.63
24422;BME280;12600;53.326;-6.298;2023-02-28T12:30:54;103506.03;;;11.81;57.29
24422;BME280;12600;53.326;-6.298;2023-02-28T12:33:52;103497.53;;;11.82;56.53
24422;BME280;12600;53.326;-6.298;2023-02-28T12:36:44;103490.00;;;11.89;56.69
24422;BME280;12600;53.326;-6.298;2023-02-28T12:39:37;103492.34;;;11.69;56.16
24422;BME280;12600;53.326;-6.298;2023-02-28T12:42:42;103494.50;;;11.67;55.46
24422;BME280;12600;53.326;-6.298;2023-02-28T12:45:42;103490.16;;;11.54;55.92
24422;BME280;12600;53.326;-6.298;2023-02-28T12:48:44;103490.03;;;11.32;55.56
24422;BME280;12600;53.326;-6.298;2023-02-28T12:51:37;103494.63;;;11.15;55.35
24422;BME280;12600;53.326;-6.298;2023-02-28T12:54:32;103486.69;;;11.02;55.88
24422;BME280;12600;53.326;-6.298;2023-02-28T12:57:33;103492.31;;;10.95;56.16
24422;BME280;12600;53.326;-6.298;2023-02-28T13:00:29;103489.00;;;10.93;56.46
24422;BME280;12600;53.326;-6.298;2023-02-28T13:03:54;103491.59;;;11.00;56.43
24422;BME280;12600;53.326;-6.298;2023-02-28T13:07:06;103485.00;;;11.12;55.94
24422;BME280;12600;53.326;-6.298;2023-02-28T13:10:04;103487.44;;;11.26;55.60
24422;BME280;12600;53.326;-6.298;2023-02-28T13:12:55;103472.00;;;11.19;55.95
24422;BME280;12600;53.326;-6.298;2023-02-28T13:16:00;103469.31;;;11.08;55.80
24422;BME280;12600;53.326;-6.298;2023-02-28T13:18:50;103471.38;;;11.01;55.91
24422;BME280;12600;53.326;-6.298;2023-02-28T13:21:44;103463.31;;;10.82;55.57
24422;BME280;12600;53.326;-6.298;2023-02-28T13:24:49;103460.13;;;10.74;56.08
24422;BME280;12600;53.326;-6.298;2023-02-28T13:27:40;103470.16;;;10.68;56.29
24422;BME280;12600;53.326;-6.298;2023-02-28T13:31:05;103464.91;;;10.67;56.28
24422;BME280;12600;53.326;-6.298;2023-02-28T13:34:15;103456.84;;;10.60;56.53
24422;BME280;12600;53.326;-6.298;2023-02-28T13:37:34;103454.25;;;10.53;56.28
24422;BME280;12600;53.326;-6.298;2023-02-28T13:40:32;103469.06;;;10.57;56.55
24422;BME280;12600;53.326;-6.298;2023-02-28T13:44:03;103454.69;;;10.50;56.97
24422;BME280;12600;53.326;-6.298;2023-02-28T13:47:33;103455.56;;;10.39;56.20
24422;BME280;12600;53.326;-6.298;2023-02-28T13:50:33;103442.47;;;10.18;56.67
24422;BME280;12600;53.326;-6.298;2023-02-28T13:53:54;103449.88;;;10.29;57.09
24422;BME280;12600;53.326;-6.298;2023-02-28T13:56:52;103441.66;;;10.29;57.38
24422;BME280;12600;53.326;-6.298;2023-02-28T13:59:57;103444.16;;;10.19;56.89
24422;BME280;12600;53.326;-6.298;2023-02-28T14:03:27;103444.59;;;10.16;56.87
24422;BME280;12600;53.326;-6.298;2023-02-28T14:06:25;103444.16;;;10.19;57.35
24422;BME280;12600;53.326;-6.298;2023-02-28T14:09:23;103446.25;;;10.17;57.35
24422;BME280;12600;53.326;-6.298;2023-02-28T14:12:56;103444.53;;;10.22;57.59
24422;BME280;12600;53.326;-6.298;2023-02-28T14:15:58;103446.06;;;10.30;57.93
24422;BME280;12600;53.326;-6.298;2023-02-28T14:18:51;103445.00;;;10.43;58.41
24422;BME280;12600;53.326;-6.298;2023-02-28T14:21:56;103440.69;;;10.47;57.89
24422;BME280;12600;53.326;-6.298;2023-02-28T14:25:15;103437.72;;;10.48;57.26
24422;BME280;12600;53.326;-6.298;2023-02-28T14:28:17;103411.50;;;10.35;57.28
24422;BME280;12600;53.326;-6.298;2023-02-28T14:31:13;103421.69;;;10.40;57.18
24422;BME280;12600;53.326;-6.298;2023-02-28T14:34:29;103430.34;;;10.49;57.41
24422;BME280;12600;53.326;-6.298;2023-02-28T14:37:27;103427.84;;;10.47;57.84
24422;BME280;12600;53.326;-6.298;2023-02-28T14:40:22;103436.91;;;10.36;57.25
24422;BME280;12600;53.326;-6.298;2023-02-28T14:43:21;103430.63;;;10.35;57.58
24422;BME280;12600;53.326;-6.298;2023-02-28T14:46:13;103438.69;;;10.30;57.30
24422;BME280;12600;53.326;-6.298;2023-02-28T14:49:04;103425.16;;;10.24;57.47
24422;BME280;12600;53.326;-6.298;2023-02-28T14:52:07;103443.91;;;10.32;57.60
24422;BME280;12600;53.326;-6.298;2023-02-28T14:55:09;103427.75;;;10.30;57.19
24422;BME280;12600;53.326;-6.298;2023-02-28T14:58:17;103437.75;;;10.36;57.83
24422;BME280;12600;53.326;-6.298;2023-02-28T15:01:12;103425.28;;;10.29;57.08
24422;BME280;12600;53.326;-6.298;2023-02-28T15:04:04;103418.50;;;10.31;57.39
24422;BME280;12600;53.326;-6.298;2023-02-28T15:07:10;103424.44;;;10.28;57.07
24422;BME280;12600;53.326;-6.298;2023-02-28T15:10:16;103417.91;;;10.29;57.21
24422;BME280;12600;53.326;-6.298;2023-02-28T15:13:10;103409.47;;;10.31;57.42
24422;BME280;12600;53.326;-6.298;2023-02-28T15:16:03;103414.56;;;10.16;57.02